Time;durP1;ratioP1;P1;durP2;ratioP2;P2;SDS_P1;SDS_P2;PMS_P1;PMS_P2;Temp;Humidity;BMP_temperature;BMP_pressure;BME280_temperature;BME280_humidity;BME280_pressure;Samples;Min_cycle;Max_cycle;Signal;HPM_P1;HPM_P2
2021/08/19 00:04:18;;;;;;;3.70;2.95;;;;;;;15.90;85.17;98014.97;5068569;28;20054;-82
2021/08/19 00:06:45;;;;;;;7.10;3.05;;;;;;;15.70;85.59;98012.88;5053431;28;20386;-82
2021/08/19 00:09:10;;;;;;;6.50;3.25;;;;;;;15.62;86.06;98013.72;5053615;28;20070;-83
2021/08/19 00:11:36;;;;;;;4.10;2.58;;;;;;;15.62;85.89;97999.13;5071291;28;20543;-81
2021/08/19 00:14:01;;;;;;;8.82;3.40;;;;;;;15.60;86.23;98021.50;5053906;28;20063;-82
2021/08/19 00:16:27;;;;;;;4.97;3.50;;;;;;;15.67;86.04;98012.72;5071832;28;20024;-82
2021/08/19 00:18:52;;;;;;;5.43;3.28;;;;;;;15.69;86.13;98025.06;5071388;28;20098;-85
2021/08/19 00:21:18;;;;;;;8.63;3.95;;;;;;;15.81;85.69;98022.44;5071075;28;20047;-82
2021/08/19 00:23:43;;;;;;;9.70;3.50;;;;;;;15.95;85.16;98023.06;5053350;28;20505;-81
2021/08/19 00:26:09;;;;;;;5.43;3.28;;;;;;;15.92;84.98;98011.88;5053034;28;20077;-81
2021/08/19 00:28:34;;;;;;;8.27;3.55;;;;;;;15.82;85.28;98013.03;5053205;28;20059;-80
2021/08/19 00:31:00;;;;;;;5.50;3.08;;;;;;;15.76;85.77;98006.06;5052909;28;20036;-81
2021/08/19 00:33:26;;;;;;;5.57;3.50;;;;;;;15.93;85.10;98007.97;5071069;28;20024;-82
2021/08/19 00:35:52;;;;;;;5.82;3.55;;;;;;;15.93;84.93;98003.28;5071396;28;20119;-80
2021/08/19 00:38:17;;;;;;;4.63;3.35;;;;;;;15.84;85.79;98002.50;5071026;28;20495;-81
2021/08/19 00:40:43;;;;;;;6.95;4.10;;;;;;;15.64;86.62;98000.41;5071448;28;20544;-82
2021/08/19 00:43:08;;;;;;;7.03;3.08;;;;;;;15.60;86.48;97999.44;5071354;28;20032;-81
2021/08/19 00:45:37;;;;;;;9.60;3.63;;;;;;;15.63;87.02;98009.03;5071559;28;20047;-84
2021/08/19 00:48:03;;;;;;;4.35;2.95;;;;;;;15.62;87.24;98010.16;5071039;28;20119;-82
2021/08/19 00:50:29;;;;;;;7.95;3.17;;;;;;;15.53;87.27;98004.66;5071557;28;20040;-81
2021/08/19 00:52:59;;;;;;;4.93;3.15;;;;;;;15.40;88.38;98000.91;5052679;28;20012;-79
2021/08/19 00:55:25;;;;;;;4.68;2.80;;;;;;;15.47;88.30;98001.22;5071055;28;20025;-81
2021/08/19 00:57:50;;;;;;;7.55;3.33;;;;;;;15.55;87.76;98007.88;5070826;28;20024;-81
2021/08/19 01:00:16;;;;;;;6.30;3.78;;;;;;;15.53;87.96;98004.66;5070761;28;20025;-82
2021/08/19 01:02:50;;;;;;;4.43;3.42;;;;;;;15.40;88.20;98013.88;5070958;28;20110;-85
2021/08/19 01:05:27;;;;;;;6.10;3.80;;;;;;;15.38;88.51;98005.13;5058843;28;20049;-81
2021/08/19 01:07:52;;;;;;;5.00;3.55;;;;;;;15.42;86.82;97997.81;5069982;28;20089;-84
2021/08/19 01:10:18;;;;;;;4.55;3.28;;;;;;;15.49;86.41;98015.53;5072706;28;20024;-84
2021/08/19 01:12:45;;;;;;;5.35;3.47;;;;;;;15.19;86.21;97982.59;5073226;28;20020;-83
2021/08/19 01:15:11;;;;;;;3.83;2.95;;;;;;;15.13;85.47;98003.19;5090992;28;20396;-81
2021/08/19 01:17:37;;;;;;;4.22;3.20;;;;;;;14.90;85.40;98008.81;5073783;28;20032;-82
2021/08/19 01:20:05;;;;;;;3.88;2.30;;;;;;;14.79;85.86;98007.50;5077011;28;20109;-83
2021/08/19 01:22:31;;;;;;;5.07;2.63;;;;;;;14.66;86.76;98013.94;5094928;28;20031;-84
2021/08/19 01:24:56;;;;;;;2.47;2.05;;;;;;;14.67;86.54;97985.28;5095307;28;20388;-85
2021/08/19 01:27:22;;;;;;;5.20;2.78;;;;;;;15.02;85.36;98006.25;5095292;28;20016;-83
2021/08/19 01:29:49;;;;;;;4.57;3.03;;;;;;;15.24;84.94;98012.72;5095146;28;20028;-83
2021/08/19 01:32:16;;;;;;;8.70;3.85;;;;;;;15.08;87.73;98015.16;5095215;28;20020;-83
2021/08/19 01:34:42;;;;;;;3.35;2.70;;;;;;;14.93;89.75;98019.19;5094799;28;20031;-81
2021/08/19 01:37:08;;;;;;;5.25;2.83;;;;;;;14.85;90.81;98019.97;5095033;28;20089;-82
2021/08/19 01:39:34;;;;;;;3.97;3.10;;;;;;;14.84;91.00;98020.31;5095300;28;20706;-84
2021/08/19 01:41:59;;;;;;;6.20;2.90;;;;;;;14.89;90.66;98018.22;5075964;28;20030;-82
2021/08/19 01:44:24;;;;;;;4.95;3.03;;;;;;;14.88;90.50;98013.81;5094984;28;20024;-83
2021/08/19 01:46:58;;;;;;;5.00;3.70;;;;;;;14.93;90.28;98027.47;5094615;28;20102;-81
2021/08/19 01:49:25;;;;;;;6.90;3.08;;;;;;;14.95;90.13;98022.44;5095085;28;20039;-86
2021/08/19 01:51:52;;;;;;;4.75;2.85;;;;;;;14.80;90.49;98019.34;5094602;28;20085;-81
2021/08/19 01:54:17;;;;;;;3.92;2.97;;;;;;;14.87;90.37;98026.00;5076417;28;20020;-81
2021/08/19 01:56:42;;;;;;;4.95;3.55;;;;;;;14.86;90.56;98018.03;5094510;28;20031;-80
2021/08/19 01:59:08;;;;;;;10.25;3.60;;;;;;;14.83;nan;98008.47;5094778;28;20028;-84
2021/08/19 02:01:34;;;;;;;3.97;2.80;;;;;;;14.71;90.03;97997.28;5094566;28;20501;-82
2021/08/19 02:03:59;;;;;;;4.50;3.28;;;;;;;14.68;90.01;98000.69;5076226;28;20043;-83
2021/08/19 02:06:24;;;;;;;5.47;3.22;;;;;;;14.68;90.49;98008.94;5094181;28;20177;-82
2021/08/19 02:08:50;;;;;;;7.60;3.25;;;;;;;14.60;91.12;98004.22;5094260;28;20054;-82
2021/08/19 02:11:16;;;;;;;5.00;3.22;;;;;;;14.60;91.46;98001.47;5094322;28;20028;-82
2021/08/19 02:13:41;;;;;;;4.72;3.17;;;;;;;14.52;91.87;97984.94;5094687;28;20114;-83
2021/08/19 02:16:07;;;;;;;6.40;5.15;;;;;;;14.61;91.94;97983.00;5094143;28;20032;-81
2021/08/19 02:18:32;;;;;;;5.90;3.15;;;;;;;14.52;92.39;97991.25;5093602;28;20042;-86
2021/08/19 02:20:58;;;;;;;8.07;3.15;;;;;;;14.45;92.98;97997.22;5094433;28;20107;-87
2021/08/19 02:23:23;;;;;;;6.20;3.45;;;;;;;14.34;93.44;97990.41;5094058;28;20028;-86
2021/08/19 02:25:49;;;;;;;3.97;2.88;;;;;;;14.23;94.33;97988.19;5075760;28;20035;-81
2021/08/19 02:28:14;;;;;;;6.03;2.95;;;;;;;14.25;93.91;97986.75;5075339;28;20111;-82
2021/08/19 02:30:40;;;;;;;5.25;3.75;;;;;;;14.25;94.16;97988.72;5094049;28;20040;-84
2021/08/19 02:33:05;;;;;;;5.18;3.40;;;;;;;14.25;94.12;97992.25;5093779;28;20032;-84
2021/08/19 02:35:31;;;;;;;3.70;3.15;;;;;;;14.17;94.62;97979.28;5094176;28;20016;-84
2021/08/19 02:38:00;;;;;;;4.43;2.85;;;;;;;14.23;94.87;97996.44;5095532;28;20024;-88
2021/08/19 02:40:26;;;;;;;4.20;3.42;;;;;;;14.12;95.35;97986.88;5098838;28;20058;-88
2021/08/19 02:42:52;;;;;;;4.65;3.25;;;;;;;14.14;95.32;98001.13;5095932;28;20813;-86
2021/08/19 02:45:17;;;;;;;4.18;3.78;;;;;;;14.07;95.53;97989.75;5077329;28;20107;-86
2021/08/19 02:47:43;;;;;;;4.78;3.47;;;;;;;14.08;95.51;97991.38;5095309;28;20035;-86
2021/08/19 02:50:09;;;;;;;4.78;3.25;;;;;;;14.09;95.85;97999.31;5095791;28;20069;-89
2021/08/19 02:52:34;;;;;;;4.65;3.17;;;;;;;14.06;95.38;97990.91;5095749;28;20035;-87
2021/08/19 02:55:00;;;;;;;4.78;3.22;;;;;;;14.11;95.37;98008.06;5095691;28;20020;-87
2021/08/19 02:57:26;;;;;;;8.02;3.80;;;;;;;14.07;95.63;98006.25;5080224;28;20533;-86
2021/08/19 02:59:51;;;;;;;7.97;3.25;;;;;;;14.03;95.72;98005.28;5075226;28;20029;-88
2021/08/19 03:02:17;;;;;;;4.18;3.08;;;;;;;14.05;95.55;98003.00;5056934;28;20035;-85
2021/08/19 03:04:42;;;;;;;3.90;3.20;;;;;;;14.10;95.19;98011.13;5056548;28;20056;-88
2021/08/19 03:07:09;;;;;;;5.10;2.92;;;;;;;14.09;95.27;98001.25;5074828;28;20027;-87
2021/08/19 03:09:35;;;;;;;3.78;2.80;;;;;;;13.96;95.70;98005.72;5057082;28;20121;-87
2021/08/19 03:12:02;;;;;;;7.53;3.17;;;;;;;13.98;95.87;97997.97;5056881;28;20125;-85
2021/08/19 03:14:27;;;;;;;6.82;3.17;;;;;;;13.98;95.57;97989.72;5074403;28;20098;-87
2021/08/19 03:16:52;;;;;;;4.97;3.35;;;;;;;14.07;95.38;98012.56;5075034;28;20532;-87
2021/08/19 03:19:19;;;;;;;4.20;3.05;;;;;;;14.02;95.31;98001.72;5074643;28;20111;-86
2021/08/19 03:21:44;;;;;;;7.93;3.38;;;;;;;14.03;95.21;98003.34;5056955;28;20396;-87
2021/08/19 03:24:10;;;;;;;4.93;3.45;;;;;;;14.02;95.17;97998.16;5056475;28;20043;-87
2021/08/19 03:26:35;;;;;;;5.22;3.50;;;;;;;14.11;94.65;97996.25;5056602;28;20025;-84
2021/08/19 03:29:00;;;;;;;6.05;3.58;;;;;;;13.89;97.21;98000.69;5056413;28;20024;-86
2021/08/19 03:31:27;;;;;;;5.68;3.45;;;;;;;13.77;99.23;98002.38;5056312;28;20472;-86
2021/08/19 03:33:52;;;;;;;7.13;4.07;;;;;;;13.61;100.00;97993.72;5056498;28;20056;-86
2021/08/19 03:36:18;;;;;;;5.63;3.28;;;;;;;13.68;100.00;97998.78;5056410;28;20036;-86
2021/08/19 03:38:43;;;;;;;8.55;3.97;;;;;;;13.79;100.00;98000.13;5073911;28;20032;-86
2021/08/19 03:41:10;;;;;;;6.35;3.60;;;;;;;13.63;97.98;97977.72;5055621;28;20059;-85
2021/08/19 03:43:37;;;;;;;6.60;3.33;;;;;;;13.52;98.49;97992.84;5056406;28;20111;-86
2021/08/19 03:46:02;;;;;;;9.00;3.58;;;;;;;13.66;98.35;97995.50;5074654;28;20021;-85
2021/08/19 03:48:28;;;;;;;8.88;4.75;;;;;;;13.70;97.61;98002.00;5055933;28;20039;-87
2021/08/19 03:50:53;;;;;;;4.65;3.42;;;;;;;13.53;97.11;98007.41;5056685;28;20033;-85
2021/08/19 03:53:19;;;;;;;6.85;4.03;;;;;;;13.75;97.26;98010.16;5056350;28;20018;-87
2021/08/19 03:55:45;;;;;;;6.10;3.22;;;;;;;13.86;95.64;98006.00;5074706;28;20024;-86
2021/08/19 03:58:10;;;;;;;6.93;4.03;;;;;;;13.82;96.29;97999.50;5069552;28;20761;-87
2021/08/19 04:00:35;;;;;;;9.27;3.80;;;;;;;13.82;95.51;97989.31;5075802;28;20028;-87
2021/08/19 04:03:01;;;;;;;5.05;3.35;;;;;;;13.75;95.78;97996.41;5075420;28;20012;-86
2021/08/19 04:05:26;;;;;;;7.10;4.18;;;;;;;13.71;96.62;97996.22;5093488;28;20048;-86
2021/08/19 04:07:52;;;;;;;7.95;4.18;;;;;;;13.61;97.30;98004.72;5075729;28;20036;-87
2021/08/19 04:10:18;;;;;;;13.63;3.72;;;;;;;13.72;96.97;97989.56;5075793;28;20024;-86
2021/08/19 04:12:44;;;;;;;6.78;4.93;;;;;;;13.86;96.64;98003.25;5094610;28;20494;-86
2021/08/19 04:15:10;;;;;;;5.22;3.78;;;;;;;13.99;96.19;98001.53;5085348;28;20108;-86
2021/08/19 04:17:36;;;;;;;4.60;3.65;;;;;;;14.11;94.97;97999.81;5036262;28;20044;-88
2021/08/19 04:20:03;;;;;;;7.05;4.00;;;;;;;14.09;95.40;98009.50;5053897;28;20029;-87
2021/08/19 04:22:28;;;;;;;5.22;3.88;;;;;;;14.09;95.80;98013.09;5052691;28;20071;-87
2021/08/19 04:24:54;;;;;;;10.32;4.47;;;;;;;14.04;96.18;98013.19;5036044;28;20029;-87
2021/08/19 04:27:19;;;;;;;5.45;3.00;;;;;;;14.06;95.44;97993.66;5058258;28;20025;-86
2021/08/19 04:29:45;;;;;;;11.27;3.53;;;;;;;14.28;94.14;98012.84;5053205;28;20041;-76
2021/08/19 04:32:11;;;;;;;9.55;3.38;;;;;;;14.25;94.27;98016.22;5069563;28;20035;-76
2021/08/19 04:34:36;;;;;;;9.10;3.70;;;;;;;13.98;95.07;98006.22;5069271;28;20028;-75
2021/08/19 04:37:02;;;;;;;5.95;3.72;;;;;;;14.04;95.13;98012.38;5069213;28;20023;-74
2021/08/19 04:39:27;;;;;;;5.55;3.65;;;;;;;14.05;94.61;98006.59;5069212;28;20078;-77
2021/08/19 04:41:54;;;;;;;5.47;3.40;;;;;;;14.10;94.74;98006.44;5070037;28;20017;-82
2021/08/19 04:44:20;;;;;;;3.92;2.72;;;;;;;14.21;93.79;98009.72;5070397;28;20492;-81
2021/08/19 04:46:45;;;;;;;6.53;3.67;;;;;;;14.07;94.69;98017.25;5070687;28;20100;-80
2021/08/19 04:49:11;;;;;;;11.05;3.55;;;;;;;14.08;94.55;98016.13;5069695;28;20032;-80
2021/08/19 04:51:39;;;;;;;4.97;3.35;;;;;;;14.08;94.33;98013.38;5069281;28;20020;-82
2021/08/19 04:54:05;;;;;;;4.20;3.00;;;;;;;14.15;94.24;98022.81;5053009;28;20110;-85
2021/08/19 04:56:41;;;;;;;5.30;3.25;;;;;;;14.25;93.69;98024.47;5051261;28;20400;-80
2021/08/19 04:59:08;;;;;;;;;;;;;;;14.31;93.48;98029.53;5067822;28;20025;-73
2021/08/19 05:01:34;;;;;;;5.65;4.13;;;;;;;14.45;92.20;98026.69;5069637;28;19916;-76
2021/08/19 05:04:00;;;;;;;6.97;3.42;;;;;;;14.67;90.84;98014.75;5070189;28;20039;-75
2021/08/19 05:06:30;;;;;;;4.45;3.25;;;;;;;14.96;89.03;98032.34;5050800;28;20127;-74
2021/08/19 05:08:59;;;;;;;6.90;3.95;;;;;;;14.69;89.83;98034.53;5068552;28;20028;-73
2021/08/19 05:11:25;;;;;;;4.60;3.55;;;;;;;14.71;90.07;98029.53;5066570;28;20021;-74
2021/08/19 05:13:52;;;;;;;9.90;3.60;;;;;;;14.61;91.44;98018.78;5068537;28;20028;-73
2021/08/19 05:16:18;;;;;;;6.45;3.85;;;;;;;14.66;91.17;98030.47;5068490;28;20048;-74
2021/08/19 05:18:43;;;;;;;12.13;4.78;;;;;;;14.84;90.35;98037.66;5051587;28;20370;-76
2021/08/19 05:21:10;;;;;;;6.50;4.20;;;;;;;15.27;88.14;98034.13;5051938;28;20036;-75
2021/08/19 05:23:36;;;;;;;10.02;6.32;;;;;;;15.29;87.10;98026.34;5051764;28;20038;-76
2021/08/19 05:26:01;;;;;;;11.07;4.28;;;;;;;15.63;85.93;98020.84;5069916;28;20111;-74
2021/08/19 05:28:27;;;;;;;7.95;3.55;;;;;;;15.62;85.42;98033.03;5069889;28;20097;-75
2021/08/19 05:30:52;;;;;;;8.05;4.18;;;;;;;15.79;84.94;98030.22;5069400;28;20392;-74
2021/08/19 05:33:18;;;;;;;6.90;3.70;;;;;;;15.83;83.91;98041.41;5051192;28;20069;-75
2021/08/19 05:35:43;;;;;;;6.45;4.05;;;;;;;15.28;87.03;98044.03;5068866;28;20029;-75
2021/08/19 05:38:09;;;;;;;5.72;4.03;;;;;;;15.64;85.17;98035.44;5068646;28;20031;-75
2021/08/19 05:40:34;;;;;;;7.55;4.35;;;;;;;15.98;83.62;98044.47;5069319;28;20107;-74
2021/08/19 05:43:00;;;;;;;8.88;4.90;;;;;;;15.52;85.06;98038.88;5069738;28;20472;-74
2021/08/19 05:45:25;;;;;;;9.98;4.30;;;;;;;15.44;86.02;98039.66;5069698;28;20020;-76
2021/08/19 05:47:50;;;;;;;6.53;4.70;;;;;;;15.65;85.48;98043.41;5069454;28;20028;-74
2021/08/19 05:50:17;;;;;;;6.90;4.03;;;;;;;15.90;83.86;98039.81;5070213;28;20400;-74
2021/08/19 05:52:44;;;;;;;13.50;4.60;;;;;;;16.10;82.46;98048.53;5069576;28;20033;-74
2021/08/19 05:55:09;;;;;;;13.23;5.22;;;;;;;16.26;81.84;98047.63;5069682;28;20048;-73
2021/08/19 05:57:35;;;;;;;11.20;3.50;;;;;;;16.39;80.38;98051.31;5069700;28;20056;-73
2021/08/19 06:00:00;;;;;;;8.38;3.95;;;;;;;16.85;79.02;98050.50;5069585;28;20082;-74
2021/08/19 06:02:26;;;;;;;6.95;3.85;;;;;;;17.20;77.06;98051.13;5051644;28;20074;-73
2021/08/19 06:04:51;;;;;;;9.38;3.97;;;;;;;17.60;75.19;98055.06;5072063;28;20037;-74
2021/08/19 06:07:16;;;;;;;7.63;4.03;;;;;;;17.37;75.20;98053.72;5073255;28;20357;-74
2021/08/19 06:09:42;;;;;;;5.40;3.47;;;;;;;17.94;73.34;98062.22;5073025;28;20035;-74
2021/08/19 06:12:07;;;;;;;5.18;4.07;;;;;;;17.41;74.44;98058.28;5073337;28;20123;-74
2021/08/19 06:14:33;;;;;;;14.95;4.15;;;;;;;17.57;74.61;98056.50;5073188;28;20119;-74
2021/08/19 06:16:58;;;;;;;5.78;3.70;;;;;;;17.83;73.28;98061.81;5073089;28;20476;-74
2021/08/19 06:19:24;;;;;;;5.70;4.35;;;;;;;17.71;73.01;98061.78;5088411;28;20067;-73
2021/08/19 06:21:50;;;;;;;8.85;5.38;;;;;;;17.67;73.79;98058.06;5093809;28;20040;-74
2021/08/19 06:24:15;;;;;;;6.80;4.13;;;;;;;17.33;74.21;98050.00;5093489;28;20025;-74
2021/08/19 06:26:41;;;;;;;5.85;4.38;;;;;;;17.14;75.31;98054.06;5089157;28;20027;-74
2021/08/19 06:29:06;;;;;;;7.82;3.90;;;;;;;16.95;76.61;98048.16;5043543;28;20031;-74
2021/08/19 06:31:32;;;;;;;6.15;4.40;;;;;;;16.73;77.72;98042.13;5072585;28;20041;-73
2021/08/19 06:33:57;;;;;;;9.98;4.82;;;;;;;17.20;75.77;98045.59;5072852;28;20031;-74
2021/08/19 06:36:23;;;;;;;4.72;3.63;;;;;;;17.95;73.05;98050.78;5073105;28;20036;-75
2021/08/19 06:38:52;;;;;;;8.32;4.60;;;;;;;17.87;72.53;98048.13;5072690;28;20029;-74
2021/08/19 06:41:20;;;;;;;8.13;4.40;;;;;;;17.75;73.28;98048.88;5072870;28;20480;-75
2021/08/19 06:43:46;;;;;;;7.90;3.70;;;;;;;17.93;72.68;98050.34;5072627;28;20036;-75
2021/08/19 06:46:12;;;;;;;6.78;3.28;;;;;;;18.15;71.47;98044.41;5072569;28;20020;-75
2021/08/19 06:48:37;;;;;;;9.02;3.78;;;;;;;18.54;69.89;98048.53;5072296;28;20032;-75
2021/08/19 06:51:03;;;;;;;5.25;3.65;;;;;;;18.70;68.72;98054.22;5074511;28;20028;-87
2021/08/19 06:53:28;;;;;;;5.72;3.75;;;;;;;18.92;68.06;98047.41;5074285;28;20031;-84
2021/08/19 06:55:54;;;;;;;4.22;3.80;;;;;;;18.87;67.92;98050.41;5056623;28;20373;-84
2021/08/19 06:58:19;;;;;;;4.20;2.90;;;;;;;18.93;67.91;98044.28;5074790;28;20028;-86
2021/08/19 07:00:45;;;;;;;7.28;3.10;;;;;;;19.04;66.64;98044.63;5074540;28;20111;-87
2021/08/19 07:03:15;;;;;;;4.70;3.25;;;;;;;18.84;67.37;98040.00;5075544;28;20029;-85
2021/08/19 07:05:44;;;;;;;6.88;3.95;;;;;;;18.94;66.90;98036.78;5056883;28;20135;-87
2021/08/19 07:08:10;;;;;;;7.65;4.00;;;;;;;19.17;65.65;98041.47;5071476;28;20035;-85
2021/08/19 07:10:36;;;;;;;11.93;3.30;;;;;;;19.53;64.81;98037.03;5056891;28;20058;-86
2021/08/19 07:13:02;;;;;;;6.45;3.65;;;;;;;19.56;64.45;98036.31;5074417;28;20090;-87
2021/08/19 07:15:28;;;;;;;9.13;6.50;;;;;;;20.35;61.60;98031.81;5073392;28;20457;-88
2021/08/19 07:17:53;;;;;;;9.07;5.68;;;;;;;19.96;63.40;98028.75;5056932;28;20058;-88
2021/08/19 07:20:19;;;;;;;9.80;4.72;;;;;;;20.49;61.47;98029.38;5074575;28;20106;-86
2021/08/19 07:22:45;;;;;;;8.98;5.47;;;;;;;20.73;60.72;98034.78;5056621;28;20480;-88
2021/08/19 07:25:14;;;;;;;8.30;4.05;;;;;;;21.06;59.62;98037.97;5075059;28;20150;-87
2021/08/19 07:27:41;;;;;;;7.38;4.28;;;;;;;20.45;61.29;98034.06;5074724;28;20036;-88
2021/08/19 07:30:07;;;;;;;6.93;3.40;;;;;;;20.36;61.63;98039.00;5074502;28;20536;-83
2021/08/19 07:32:33;;;;;;;6.45;3.10;;;;;;;21.26;59.45;98031.31;5074124;28;20025;-86
2021/08/19 07:34:58;;;;;;;5.63;2.85;;;;;;;22.05;57.33;98042.16;5075070;28;20024;-87
2021/08/19 07:37:24;;;;;;;3.58;2.97;;;;;;;22.07;56.16;98037.00;5074291;28;20377;-86
2021/08/19 07:39:49;;;;;;;4.30;3.30;;;;;;;21.43;58.33;98034.81;5073788;28;20028;-85
2021/08/19 07:42:14;;;;;;;5.53;3.33;;;;;;;21.55;58.85;98026.38;5055948;28;20033;-87
2021/08/19 07:44:43;;;;;;;5.63;3.42;;;;;;;21.79;57.76;98031.66;5073254;28;20033;-82
2021/08/19 07:47:09;;;;;;;7.38;3.60;;;;;;;22.13;55.54;98027.16;5047503;28;20045;-82
2021/08/19 07:49:34;;;;;;;5.20;2.92;;;;;;;21.46;56.63;98012.63;5055268;28;20040;-84
2021/08/19 07:52:00;;;;;;;4.78;3.17;;;;;;;21.67;57.49;98029.00;5073591;28;20033;-85
2021/08/19 07:54:28;;;;;;;6.43;3.22;;;;;;;22.04;55.83;98024.63;5072191;28;20027;-85
2021/08/19 07:56:56;;;;;;;5.20;3.30;;;;;;;23.29;53.06;98018.00;5072838;28;20060;-82
2021/08/19 08:47:23;;;;;;;6.45;2.55;;;;;;;30.26;33.52;98024.97;5045568;28;20745;-79
2021/08/19 08:49:49;;;;;;;4.70;2.90;;;;;;;31.04;31.97;98026.66;5029233;28;20485;-78
2021/08/19 08:52:15;;;;;;;9.38;2.97;;;;;;;31.15;31.56;98021.59;5030564;28;20128;-76
2021/08/19 08:54:40;;;;;;;4.13;2.92;;;;;;;31.47;30.64;98033.16;5016340;28;20025;-82
2021/08/19 08:57:06;;;;;;;5.90;2.47;;;;;;;33.59;27.84;98024.75;5030002;28;20343;-78
2021/08/19 08:59:31;;;;;;;5.32;3.03;;;;;;;30.50;30.87;98015.38;5030501;28;20052;-76
2021/08/19 09:01:56;;;;;;;5.30;2.92;;;;;;;29.40;33.21;98015.09;5023561;28;20373;-78
2021/08/19 09:04:23;;;;;;;4.32;2.28;;;;;;;29.21;34.11;98008.00;5030359;28;20466;-78
2021/08/19 09:06:48;;;;;;;3.55;2.58;;;;;;;28.58;34.67;97998.03;5029631;28;20056;-77
2021/08/19 09:09:20;;;;;;;3.83;2.38;;;;;;;27.92;35.93;98006.44;5026216;28;20496;-77
2021/08/19 09:11:55;;;;;;;4.07;2.70;;;;;;;29.27;33.58;97999.91;5025423;28;20037;-76
2021/08/19 09:14:31;;;;;;;;;;;;;;;30.40;31.90;98005.03;5022395;28;20026;-78
2021/08/19 09:16:57;;;;;;;3.65;2.35;;;;;;;29.89;32.31;97997.63;5027670;28;20029;-78
2021/08/19 09:19:28;;;;;;;4.40;2.17;;;;;;;29.26;32.87;97982.19;5012075;28;20128;-77
2021/08/19 09:22:05;;;;;;;4.68;2.25;;;;;;;30.58;31.61;98001.91;5029203;28;20084;-77
2021/08/19 09:24:33;;;;;;;2.80;2.13;;;;;;;29.36;30.30;97998.22;5022853;28;20624;-78
2021/08/19 09:27:17;;;;;;;3.45;2.22;;;;;;;30.95;28.51;97996.09;5027164;28;20025;-78
2021/08/19 09:29:43;;;;;;;3.92;2.10;;;;;;;29.13;30.01;97989.56;5008836;28;20037;-78
2021/08/19 09:32:14;;;;;;;3.20;2.03;;;;;;;29.59;29.76;97984.25;5011547;28;20025;-78
2021/08/19 09:34:42;;;;;;;2.00;1.67;;;;;;;31.49;27.20;98001.59;5009638;28;20049;-76
2021/08/19 09:37:10;;;;;;;2.22;1.75;;;;;;;31.35;26.74;97996.22;5023465;28;20056;-78
2021/08/19 09:39:40;;;;;;;2.20;1.90;;;;;;;31.73;26.12;97989.03;5027232;28;20068;-77
2021/08/19 09:42:08;;;;;;;4.85;2.53;;;;;;;32.54;25.35;97990.09;5015007;28;20037;-78
2021/08/19 09:44:39;;;;;;;3.55;2.13;;;;;;;32.51;26.33;97985.31;5032566;28;20052;-78
2021/08/19 09:47:06;;;;;;;3.75;2.30;;;;;;;31.35;27.93;97985.72;5030994;28;20029;-78
2021/08/19 09:49:37;;;;;;;5.32;2.17;;;;;;;31.11;27.56;97987.75;5049358;28;20244;-79
2021/08/19 09:52:12;;;;;;;3.17;2.03;;;;;;;30.38;28.24;97978.41;5050788;28;20036;-79
2021/08/19 09:54:42;;;;;;;3.35;2.13;;;;;;;31.53;27.18;97980.53;5064046;28;20033;-77
2021/08/19 09:57:10;;;;;;;3.78;2.08;;;;;;;31.54;27.12;97982.13;5048400;28;20078;-78
2021/08/19 09:59:39;;;;;;;6.05;1.80;;;;;;;30.58;27.61;97977.31;5069813;28;20033;-77
2021/08/19 10:02:10;;;;;;;4.35;2.00;;;;;;;29.81;29.67;97973.53;5072825;28;20039;-77
2021/08/19 10:04:36;;;;;;;3.03;1.95;;;;;;;31.02;28.69;97972.56;5072394;28;20035;-78
2021/08/19 10:07:03;;;;;;;12.77;2.25;;;;;;;31.59;28.07;97961.81;5054044;28;20028;-76
2021/08/19 10:09:31;;;;;;;3.28;2.17;;;;;;;30.66;28.22;97973.16;5071922;28;20078;-76
2021/08/19 10:11:58;;;;;;;4.43;2.28;;;;;;;32.61;26.70;97964.44;5070265;28;20074;-78
2021/08/19 10:14:26;;;;;;;4.68;2.78;;;;;;;31.38;27.75;97959.38;5054031;28;20539;-77
2021/08/19 10:16:53;;;;;;;5.43;1.50;;;;;;;32.67;25.94;97962.66;5053669;28;20028;-78
2021/08/19 10:19:34;;;;;;;3.40;2.60;;;;;;;33.44;25.54;97959.06;5071717;28;20460;-77
2021/08/19 10:22:14;;;;;;;1.70;1.58;;;;;;;34.33;23.85;97963.00;5070631;28;20024;-75
2021/08/19 10:24:46;;;;;;;4.43;2.00;;;;;;;32.13;26.54;97961.50;5068001;28;20397;-76
2021/08/19 10:27:26;;;;;;;3.17;2.35;;;;;;;29.88;30.10;97947.28;5072797;28;20016;-77
2021/08/19 10:30:04;;;;;;;5.93;2.28;;;;;;;31.22;28.31;97947.97;5072728;28;20032;-77
2021/08/19 10:32:33;;;;;;;3.22;2.35;;;;;;;31.25;28.42;97945.09;5073078;28;20028;-78
2021/08/19 10:35:12;;;;;;;7.43;2.45;;;;;;;30.02;29.70;97938.59;5054715;28;20067;-78
2021/08/19 10:37:47;;;;;;;5.05;2.40;;;;;;;29.54;31.18;97936.78;5073006;28;20028;-77
2021/08/19 10:40:22;;;;;;;2.05;1.83;;;;;;;30.40;29.93;97920.31;5054836;28;20035;-77
2021/08/19 10:42:56;;;;;;;3.05;1.90;;;;;;;31.72;27.69;97928.81;5072783;28;20059;-78
2021/08/19 10:45:27;;;;;;;4.13;2.42;;;;;;;30.89;29.23;97926.34;5072574;28;20043;-77
2021/08/19 10:48:02;;;;;;;8.77;2.90;;;;;;;30.50;29.05;97924.19;5054758;28;20137;-78
2021/08/19 10:50:33;;;;;;;3.92;2.53;;;;;;;29.42;31.58;97916.78;5070552;28;20039;-79
2021/08/19 10:53:12;;;;;;;2.92;2.05;;;;;;;27.38;35.21;97917.09;5054855;28;20123;-79
2021/08/19 10:55:40;;;;;;;4.47;2.13;;;;;;;26.34;36.05;97903.59;5072849;28;20020;-78
2021/08/19 10:58:23;;;;;;;3.58;2.92;;;;;;;26.68;35.76;97907.59;5072850;28;20023;-79
2021/08/19 11:00:48;;;;;;;3.88;2.00;;;;;;;27.21;35.61;97912.31;5072455;28;20034;-79
2021/08/19 11:03:36;;;;;;;5.78;2.25;;;;;;;27.13;35.61;97903.91;5072178;28;20025;-79
2021/08/19 11:06:05;;;;;;;5.07;2.22;;;;;;;26.93;35.99;97894.34;5072515;28;20109;-79
2021/08/19 11:08:38;;;;;;;3.75;2.45;;;;;;;27.09;36.32;97899.53;5073259;28;20465;-78
2021/08/19 11:11:05;;;;;;;3.53;2.08;;;;;;;26.66;37.29;97895.19;5054298;28;20423;-79
2021/08/19 11:13:37;;;;;;;4.20;2.15;;;;;;;26.79;36.69;97887.91;5072443;28;20054;-80
2021/08/19 11:16:08;;;;;;;3.20;2.28;;;;;;;26.73;36.14;97890.34;5072573;28;20027;-79
2021/08/19 11:18:34;;;;;;;4.10;2.00;;;;;;;26.12;37.05;97885.94;5054431;28;20032;-77
2021/08/19 11:21:01;;;;;;;5.03;2.25;;;;;;;26.78;36.38;97880.72;5072841;28;20025;-78
2021/08/19 11:23:33;;;;;;;5.05;2.42;;;;;;;27.04;36.04;97877.47;5072508;28;20020;-79
2021/08/19 11:26:01;;;;;;;2.72;1.80;;;;;;;26.72;36.17;97874.69;5071977;28;20024;-79
2021/08/19 11:28:34;;;;;;;3.33;2.53;;;;;;;26.32;35.97;97861.91;5072083;28;20473;-78
2021/08/19 11:30:59;;;;;;;2.25;1.83;;;;;;;26.18;36.70;97864.72;5054197;28;20029;-78
2021/08/19 11:33:27;;;;;;;3.88;2.05;;;;;;;26.29;36.66;97854.31;5072162;28;20016;-79
2021/08/19 11:35:54;;;;;;;3.63;2.53;;;;;;;26.38;35.66;97871.53;5054330;28;20023;-78
2021/08/19 11:38:25;;;;;;;4.68;2.03;;;;;;;26.55;34.58;97867.13;5052354;28;20032;-79
2021/08/19 11:40:53;;;;;;;2.65;1.92;;;;;;;26.17;35.89;97871.53;5071960;28;20027;-78
2021/08/19 11:43:28;;;;;;;2.63;2.20;;;;;;;26.19;36.34;97860.72;5053985;28;20028;-80
2021/08/19 11:46:03;;;;;;;4.28;2.20;;;;;;;26.86;35.08;97862.66;5053798;28;20041;-80
2021/08/19 11:48:29;;;;;;;2.13;1.92;;;;;;;26.89;34.71;97853.44;5071766;28;20075;-79
2021/08/19 11:50:57;;;;;;;3.45;2.13;;;;;;;26.75;34.57;97839.41;5054046;28;20052;-78
2021/08/19 11:53:23;;;;;;;4.28;2.33;;;;;;;26.94;34.21;97847.41;5071937;28;20031;-79
2021/08/19 11:55:50;;;;;;;4.35;1.88;;;;;;;26.27;34.80;97851.09;5053798;28;20059;-79
2021/08/19 11:58:23;;;;;;;2.65;1.92;;;;;;;25.87;35.42;97849.47;5053879;28;20124;-80
2021/08/19 12:01:08;;;;;;;3.42;2.30;;;;;;;25.78;34.86;97851.81;5073434;28;20532;-79
2021/08/19 12:03:41;;;;;;;2.47;1.90;;;;;;;26.52;34.21;97834.25;5071986;28;20032;-78
2021/08/19 12:06:09;;;;;;;3.20;2.10;;;;;;;26.03;35.13;97829.44;5053424;28;20485;-77
2021/08/19 12:08:37;;;;;;;1.88;1.60;;;;;;;25.94;34.85;97840.22;5053259;28;20110;-78
2021/08/19 12:11:05;;;;;;;3.17;2.28;;;;;;;26.09;34.82;97830.66;5071217;28;20020;-78
2021/08/19 12:13:33;;;;;;;3.90;2.10;;;;;;;26.52;33.79;97829.44;5053329;28;20039;-79
2021/08/19 12:15:59;;;;;;;7.53;2.33;;;;;;;26.82;33.72;97836.59;5071297;28;20388;-78
2021/08/19 12:18:25;;;;;;;4.63;2.20;;;;;;;26.92;33.46;97830.16;5053170;28;20039;-79
2021/08/19 12:21:11;;;;;;;2.70;1.88;;;;;;;26.08;35.01;97824.22;5053400;28;20082;-79
2021/08/19 12:23:36;;;;;;;4.47;1.83;;;;;;;26.66;34.95;97834.19;5071205;28;20396;-79
2021/08/19 12:26:08;;;;;;;3.38;2.08;;;;;;;26.52;33.58;97835.06;5070966;28;20032;-80